Latest Weather Observations for Mildura

IDN60801

Issued at 8:52 am EST Wednesday 18 September 2019 (issued every 10 minutes, with the page automatically refreshed every 10 minutes)

About weather observations | Map of weather stations | Latest weather observations for NSW | Other Formats
Station Details ID: 076031 Name: MILDURA AIRPORT Lat: -34.24 Lon: 142.09 Height: 50.0 m
Data from the previous 72 hours. | See also: Recent months at Mildura
Date/Time
EST
Temp
°C
App
Temp
°C
Dew
Point
°C
Rel
Hum
%
Delta-T
°C
Wind Press
QNH
hPa
Press
MSL
hPa
Rain since
9am
mm
Dir  Spd
km/h
Gust
km/h
Spd
kts
Gust
kts
18/08:30am 11.3 7.2 2.3 54 3.9 ENE 13 15 7 8 1028.0 1028.0 0.2
18/08:00am 8.7 5.7 2.3 64 2.7 E 7 11 4 6 1028.0 1028.0 0.2
18/07:30am 6.5 3.4 1.6 71 2.0 ESE 7 7 4 4 1028.0 1028.0 0.2
18/07:00am 3.6 0.7 2.4 92 0.5 E 7 9 4 5 1027.7 1027.7 0.2
18/06:30am 1.7 -1.3 0.5 92 0.4 SE 6 7 3 4 1027.6 1027.6 0.2
18/06:00am 2.2 -0.8 1.0 92 0.5 ESE 6 9 3 5 1027.2 1027.2 0.2
18/05:30am 2.0 -1.0 0.7 91 0.5 SE 6 7 3 4 1027.2 1027.2 0.2
18/05:00am 2.7 -0.3 0.9 88 0.7 SSE 6 7 3 4 1027.1 1027.1 0.2
18/04:30am 2.8 -0.2 1.0 88 0.7 S 6 7 3 4 1027.0 1027.0 0.2
18/04:00am 2.9 -0.1 0.8 86 0.8 SSE 6 7 3 4 1026.9 1026.9 0.2
18/03:30am 3.4 0.2 0.8 83 1.0 SSE 7 7 4 4 1027.0 1027.0 0.2
18/03:00am 4.0 0.8 0.9 80 1.2 S 7 9 4 5 1027.0 1027.0 0.2
18/02:30am 4.5 1.3 0.8 77 1.4 S 7 9 4 5 1027.1 1027.1 0.2
18/02:00am 4.9 1.8 1.2 77 1.4 SSE 7 9 4 5 1027.3 1027.3 0.2
18/01:30am 5.3 2.1 0.9 73 1.7 SSE 7 7 4 4 1027.5 1027.5 0.2
18/01:00am 6.5 3.3 1.0 68 2.2 SE 7 9 4 5 1027.4 1027.4 0.2
18/12:30am 7.1 3.6 1.2 66 2.4 SE 9 11 5 6 1027.3 1027.3 0.2
18/12:00am 7.4 3.9 1.3 65 2.4 SE 9 11 5 6 1027.5 1027.5 0.2
 
Date/Time
EST
Temp
°C
App
Temp
°C
Dew
Point
°C
Rel
Hum
%
Delta-T
°C
Wind Press
QNH
hPa
Press
MSL
hPa
Rain since
9am
mm
Dir  Spd
km/h
Gust
km/h
Spd
kts
Gust
kts
17/11:30pm 6.3 3.1 0.8 68 2.2 SSE 7 9 4 5 1027.8 1027.8 0.2
17/11:00pm 6.4 3.4 0.7 67 2.2 SSE 6 7 3 4 1028.0 1028.0 0.2
17/10:30pm 6.9 3.7 0.6 64 2.5 SSE 7 9 4 5 1028.1 1028.1 0.2
17/10:00pm 7.5 4.2 0.3 60 2.8 SSE 7 9 4 5 1028.3 1028.3 0.2
17/09:30pm 8.5 5.2 0.0 55 3.4 SSE 7 11 4 6 1028.4 1028.4 0.2
17/09:00pm 9.1 5.4 -0.2 52 3.7 SSE 9 9 5 5 1028.2 1028.2 0.2
17/08:30pm 10.1 6.8 -0.1 49 4.1 SSE 7 9 4 5 1028.0 1028.0 0.2
17/08:00pm 10.9 7.1 -0.5 45 4.5 SSE 9 11 5 6 1027.7 1027.7 0.2
17/07:30pm 11.4 7.6 -0.4 44 4.8 SSE 9 11 5 6 1027.3 1027.3 0.2
17/07:00pm 11.6 8.2 -0.5 43 4.9 SSE 7 9 4 5 1026.9 1026.9 0.2
17/06:30pm 12.9 8.6 -1.4 37 5.7 SE 11 15 6 8 1026.7 1026.7 0.2
17/06:00pm 14.2 9.3 -3.1 30 6.7 SSE 13 19 7 10 1026.3 1026.3 0.2
17/05:30pm 14.7 9.1 -3.1 29 7.0 SSE 17 24 9 13 1026.1 1026.1 0.2
17/05:00pm 15.2 10.3 -3.2 28 7.2 SSE 13 20 7 11 1025.8 1025.8 0.2
17/04:30pm 15.5 9.5 -2.9 28 7.3 SE 19 26 10 14 1025.6 1025.6 0.2
17/04:00pm 15.3 9.2 -2.6 29 7.1 SE 20 33 11 18 1025.5 1025.5 0.2
17/03:30pm 15.2 9.1 -2.7 29 7.2 SE 20 30 11 16 1025.3 1025.3 0.2
17/03:00pm 15.4 9.5 -2.1 30 7.1 SE 19 28 10 15 1025.4 1025.4 0.2
17/02:30pm 14.5 8.6 -2.4 31 6.8 SSE 19 32 10 17 1025.4 1025.4 0.2
17/02:00pm 14.3 8.3 -1.7 33 6.4 SSE 20 30 11 16 1025.8 1025.8 0.2
17/01:30pm 14.0 8.1 -2.0 33 6.4 SSE 19 32 10 17 1026.1 1026.1 0.2
17/01:00pm 13.8 8.0 -1.4 35 6.1 SSE 19 37 10 20 1026.4 1026.4 0.2
17/12:30pm 12.7 6.7 -1.2 38 5.6 SSE 20 32 11 17 1026.9 1026.9 0.0
17/12:00pm 12.0 6.2 -0.2 43 5.0 SSE 20 33 11 18 1027.4 1027.4 0.0
17/11:30am 11.5 4.8 -0.9 42 5.0 SE 24 35 13 19 1027.6 1027.6 0.0
17/11:00am 11.5 5.8 0.3 46 4.6 SSE 20 32 11 17 1027.9 1027.9 0.0
17/10:30am 11.0 4.9 0.4 48 4.4 SSE 22 35 12 19 1028.1 1028.1 0.0
17/10:00am 10.0 4.7 2.8 61 3.1 SSE 20 28 11 15 1028.3 1028.3 0.0
17/09:30am 8.8 4.1 3.0 67 2.5 SSE 17 24 9 13 1028.5 1028.5 0.0
17/09:00am 7.5 2.7 2.4 70 2.1 SSE 17 22 9 12 1028.5 1028.5 8.0
17/08:30am 6.3 1.8 2.2 75 1.7 SSE 15 24 8 13 1028.0 1028.0 8.0
17/08:00am 4.8 0.1 1.1 77 1.4 S 15 22 8 12 1027.8 1027.8 8.0
17/07:30am 3.3 -0.6 1.0 85 0.9 SSW 11 17 6 9 1027.6 1027.6 8.0
17/07:00am 1.7 -1.9 0.5 92 0.4 S 9 13 5 7 1027.3 1027.3 8.0
17/06:30am 1.3 -2.3 0.3 93 0.4 SSW 9 15 5 8 1027.2 1027.2 8.0
17/06:00am 1.7 -1.9 0.4 91 0.5 SSW 9 13 5 7 1026.8 1026.8 8.0
17/05:30am 2.4 -1.2 0.6 88 0.7 S 9 15 5 8 1026.3 1026.3 8.0
17/05:00am 2.6 -1.0 0.7 87 0.7 S 9 15 5 8 1026.2 1026.2 8.0
17/04:30am 3.1 -0.9 0.7 84 0.9 S 11 17 6 9 1026.3 1026.3 8.0
17/04:00am 3.5 -0.8 0.9 83 1.0 S 13 20 7 11 1026.1 1026.1 8.0
17/03:30am 3.5 -0.4 1.4 86 0.8 S 11 15 6 8 1026.2 1026.2 8.0
17/03:00am 4.0 0.5 1.5 84 1.0 S 9 15 5 8 1026.0 1026.0 8.0
17/02:30am 4.6 0.8 1.6 81 1.2 S 11 17 6 9 1026.0 1026.0 8.0
17/02:00am 5.1 0.9 1.8 79 1.3 S 13 22 7 12 1026.4 1026.4 8.0
17/01:30am 5.5 1.3 1.8 77 1.5 S 13 22 7 12 1026.4 1026.4 8.0
17/01:00am 6.0 1.5 2.3 77 1.5 S 15 22 8 12 1026.5 1026.5 8.0
17/12:30am 6.2 2.2 2.7 78 1.4 S 13 20 7 11 1026.4 1026.4 8.0
17/12:00am 6.7 2.7 3.1 78 1.5 S 13 20 7 11 1026.2 1026.2 8.0
 
Date/Time
EST
Temp
°C
App
Temp
°C
Dew
Point
°C
Rel
Hum
%
Delta-T
°C
Wind Press
QNH
hPa
Press
MSL
hPa
Rain since
9am
mm
Dir  Spd
km/h
Gust
km/h
Spd
kts
Gust
kts
16/11:30pm 7.0 2.7 3.4 78 1.5 S 15 20 8 11 1025.8 1025.8 8.0
16/11:00pm 7.0 3.9 3.8 80 1.4 S 9 17 5 9 1025.7 1025.7 8.0
16/10:30pm 7.5 4.4 3.7 77 1.6 S 9 13 5 7 1025.7 1025.7 8.0
16/10:00pm 8.1 5.0 3.8 74 1.8 S 9 13 5 7 1025.6 1025.6 8.0
16/09:30pm 8.6 4.8 3.8 72 2.1 SSE 13 19 7 10 1025.0 1025.0 8.0
16/09:00pm 8.7 5.0 4.5 75 1.8 SSE 13 19 7 10 1024.7 1024.7 8.0
16/08:30pm 8.5 5.9 6.0 84 1.1 S 9 13 5 7 1024.5 1024.5 8.0
16/08:00pm 8.4 6.4 7.2 92 0.6 S 7 9 4 5 1024.3 1024.3 8.0
16/07:30pm 9.3 7.6 8.2 93 0.5 S 7 11 4 6 1024.2 1024.2 8.0
16/07:00pm 9.6 8.3 9.1 97 0.2 SSW 6 9 3 5 1023.8 1023.8 8.0
16/06:30pm 10.1 8.7 9.5 96 0.3 SSW 7 9 4 5 1023.4 1023.4 8.0
16/06:00pm 10.4 9.0 9.5 94 0.4 SSW 7 9 4 5 1023.0 1023.0 8.0
16/05:30pm 10.4 8.9 9.3 93 0.5 SW 7 11 4 6 1023.0 1023.0 8.0
16/05:00pm 10.3 9.1 9.4 94 0.4 SSW 6 9 3 5 1023.0 1023.0 8.0
16/04:30pm 10.0 8.2 9.5 97 0.2 S 9 13 5 7 1022.5 1022.5 8.0
16/04:00pm 9.6 7.8 9.5 99 0.0 S 9 11 5 6 1022.5 1022.5 8.0
16/03:37pm 9.4 8.1 9.3 99 0.0 S 6 11 3 6 1022.8 1022.8 8.0
16/03:30pm 9.3 7.8 9.2 99 0.0 SSE 7 11 4 6 1022.3 1022.3 8.0
16/03:00pm 9.3 7.0 9.0 98 0.1 S 11 17 6 9 1022.8 1022.8 6.4
16/02:30pm 9.2 6.4 8.6 96 0.3 S 13 22 7 12 1022.1 1022.1 4.4
16/02:25pm 9.1 5.9 8.3 95 0.4 S 15 30 8 16 1022.5 1022.5 4.0
16/02:19pm 9.1 5.1 8.3 95 0.4 SSE 19 32 10 17 1021.9 1021.9 3.6
16/02:16pm 9.2 5.2 8.4 95 0.4 SSE 19 32 10 17 1021.7 1021.7 3.6
16/02:00pm 9.1 5.1 8.3 95 0.4 SSE 19 28 10 15 1021.7 1021.7 3.0
16/01:52pm 9.2 5.7 8.6 96 0.3 S 17 24 9 13 1022.0 1022.0 2.4
16/01:30pm 9.5 6.1 9.0 97 0.2 S 17 24 9 13 1022.0 1022.0 1.6
16/01:01pm 9.9 6.1 9.1 95 0.4 S 19 32 10 17 1021.8 1021.8 0.6
16/01:00pm 9.9 6.2 9.3 96 0.3 S 19 32 10 17 1021.8 1021.8 0.6
16/12:48pm 10.2 5.8 9.1 93 0.5 SSW 22 39 12 21 1022.2 1022.2 0.2
16/12:43pm 10.3 5.5 8.9 91 0.7 SSW 24 39 13 21 1022.3 1022.3 0.2
16/12:30pm 11.0 6.1 8.4 84 1.3 SSW 24 39 13 21 1022.2 1022.2 0.0
16/12:00pm 14.1 9.7 4.7 53 4.3 S 17 26 9 14 1021.5 1021.5 0.0
16/11:30am 14.4 9.6 4.4 51 4.6 S 19 30 10 16 1021.2 1021.2 0.0
16/11:00am 14.8 9.4 4.5 50 4.8 S 22 32 12 17 1020.8 1020.8 0.0
16/10:30am 14.4 9.5 5.0 53 4.4 S 20 32 11 17 1021.2 1021.2 0.0
16/10:00am 14.0 8.7 4.9 54 4.2 SSE 22 33 12 18 1020.8 1020.8 0.0
16/09:30am 15.0 10.4 5.5 53 4.5 SSE 19 32 10 17 1020.3 1020.3 0.0
16/09:00am 14.1 8.8 4.9 54 4.3 SSE 22 32 12 17 1020.3 1020.3 0.0
16/08:30am 12.8 7.8 4.5 57 3.8 SSE 20 30 11 16 1019.9 1019.9 0.0
16/08:00am 12.2 7.2 4.7 60 3.4 S 20 33 11 18 1019.8 1019.8 0.0
16/07:30am 12.4 8.1 5.1 61 3.4 S 17 32 9 17 1019.3 1019.2 0.0
16/07:00am 12.4 7.8 6.5 67 2.8 S 20 35 11 19 1019.0 1018.9 0.0
16/06:30am 13.6 9.8 9.1 74 2.3 S 19 30 10 16 1018.7 1018.6 0.0
16/06:00am 14.6 11.0 10.0 74 2.4 S 19 28 10 15 1017.8 1017.7 0.0
16/05:30am 14.9 11.5 10.5 75 2.3 S 19 30 10 16 1017.4 1017.4 0.0
16/05:00am 15.4 11.4 10.4 72 2.6 S 22 35 12 19 1016.9 1016.9 0.0
16/04:30am 16.1 13.0 10.4 69 3.0 S 17 30 9 16 1016.4 1016.4 0.0
16/04:00am 16.5 13.7 10.1 66 3.4 SSE 15 22 8 12 1015.5 1015.5 0.0
16/03:30am 17.0 13.3 9.4 61 4.0 S 19 26 10 14 1015.5 1015.5 0.0
16/03:00am 17.3 13.7 8.4 56 4.6 SSE 17 26 9 14 1015.0 1015.0 0.0
16/02:30am 17.6 13.5 7.9 53 4.9 S 19 28 10 15 1015.0 1015.0 0.0
16/02:00am 18.2 14.2 6.7 47 5.7 S 17 32 9 17 1015.3 1015.3 0.0
16/01:30am 19.9 14.9 3.6 34 7.7 SSW 19 32 10 17 1015.4 1015.4 0.0
16/01:00am 20.1 16.6 1.0 28 8.6 NW 9 11 5 6 1014.6 1014.6 0.0
16/12:30am 22.0 18.4 0.5 24 9.8 NNW 9 13 5 7 1014.7 1014.7 0.0
16/12:00am 22.3 19.3 1.9 26 9.5 NW 7 13 4 7 1015.0 1015.0 0.0
 
Date/Time
EST
Temp
°C
App
Temp
°C
Dew
Point
°C
Rel
Hum
%
Delta-T
°C
Wind Press
QNH
hPa
Press
MSL
hPa
Rain since
9am
mm
Dir  Spd
km/h
Gust
km/h
Spd
kts
Gust
kts
15/11:30pm 21.2 17.8 2.0 28 8.9 WSW 9 17 5 9 1015.2 1015.2 0.0
15/11:00pm 22.2 19.0 2.8 28 9.2 NNW 9 13 5 7 1015.2 1015.2 0.0
15/10:30pm 21.3 18.4 2.6 29 8.8 NNW 7 9 4 5 1015.5 1015.5 0.0
15/10:00pm 23.2 20.0 3.2 27 9.6 N 9 13 5 7 1015.8 1015.8 0.0
15/09:30pm 22.8 19.9 2.8 27 9.6 NNE 7 9 4 5 1016.0 1016.0 0.0
15/09:00pm 25.0 22.2 3.0 24 10.7 NNW 7 9 4 5 1016.3 1016.3 0.0
15/08:30pm 25.3 22.6 2.7 23 11.0 WNW 6 7 3 4 1016.7 1016.7 0.0
15/08:00pm 26.7 23.8 2.6 21 11.8 W 7 17 4 9 1016.8 1016.8 0.0
15/07:30pm 25.2 23.0 3.2 24 10.8 NNW 4 9 2 5 1016.4 1016.4 0.0
15/07:00pm 27.1 24.0 1.5 19 12.3 W 7 15 4 8 1016.3 1016.3 0.0
15/06:30pm 27.8 24.3 1.3 18 12.8 WSW 9 13 5 7 1016.0 1016.0 0.0
15/06:00pm 29.0 24.5 -0.2 15 13.8 W 13 20 7 11 1015.8 1015.8 0.0
15/05:30pm 29.9 24.8 0.5 15 14.2 WNW 17 24 9 13 1015.7 1015.7 0.0
15/05:00pm 30.0 25.0 1.5 16 14.0 WNW 17 24 9 13 1015.6 1015.6 0.0
15/04:30pm 30.2 24.9 1.6 16 14.1 WNW 19 32 10 17 1015.6 1015.6 0.0
15/04:00pm 30.5 24.5 1.0 15 14.4 WNW 22 35 12 19 1016.0 1016.0 0.0
15/03:30pm 30.6 25.2 1.0 15 14.5 NW 19 30 10 16 1016.1 1016.1 0.0
15/03:00pm 30.2 23.4 0.7 15 14.3 WNW 26 37 14 20 1016.4 1016.4 0.0
15/02:30pm 30.9 25.5 1.3 15 14.6 NW 19 32 10 17 1016.9 1016.9 0.0
15/02:00pm 30.2 24.8 2.5 17 13.8 NW 20 33 11 18 1017.5 1017.5 0.0
15/01:30pm 30.0 24.6 2.3 17 13.8 NW 20 32 11 17 1018.1 1018.0 0.0
15/01:00pm 29.6 23.4 2.0 17 13.6 NW 24 39 13 21 1018.4 1018.3 0.0
15/12:30pm 29.5 24.0 1.9 17 13.6 NNW 20 32 11 17 1018.9 1018.8 0.0
15/12:00pm 28.5 22.6 1.9 18 13.0 NNW 22 33 12 18 1019.4 1019.3 0.0
15/11:30am 27.7 22.2 2.0 19 12.5 NNW 20 33 11 18 1019.7 1019.7 0.0
15/11:00am 26.9 21.9 3.4 22 11.7 NNW 19 32 10 17 1020.0 1020.0 0.0
15/10:30am 24.6 18.9 2.7 24 10.6 N 22 32 12 17 1020.1 1020.1 0.0
15/10:00am 24.0 18.9 2.8 25 10.2 NNW 19 33 10 18 1020.7 1020.7 0.0
15/09:30am 22.2 16.9 2.8 28 9.2 N 20 28 11 15 1020.9 1020.9 0.0
15/09:00am 21.1 16.0 2.9 30 8.6 N 19 30 10 16 1021.6 1021.6 0.0

Other formats

Comma delimited format used in spreadsheet applications
http://www.bom.gov.au/fwo/IDN60801/IDN60801.94693.axf

JavaScript Object Notation format (JSON) in row-major order
http://www.bom.gov.au/fwo/IDN60801/IDN60801.94693.json

Data quality

Most of these data are generated automatically and are frequently updated. Quality checks on data are not normally performed. It is possible for incorrect values to appear. Refer to information at About Latest Weather Observations and please check the disclaimer before using these data.